Terminal Aerodrome Forecast
Issued by NWS Mt. Holly, NJ

Home | Current Version | Previous Version | Text Only | Print | Product List | Glossary On
Versions: 1 2 3 4 5 6 7 8 9 10 11 12 13 14 15 16 17 18 19 20 21 22 23 24 25 26 27 28 29 30 31 32 33 34 35 36 37
000
FTAK31 PANC 231426 AAA
TAFABE
TAF AMD
PABE 231426Z 2314/2412 VRB03KT P6SM OVC015
      TEMPO 2314/2318 1/4SM -DZ FG BKN002
     FM232100 03006KT P6SM -RA OVC015
     FM240500 36007KT 3SM -RA BR OVC005=

USA.gov is the U.S. government's official web portal to all federal, state and local government web resources and services.